WXM80 ListenWXM80 Stop

You find our weather info also at:

UK Metoffice

WeatherCloud

Weather Underground

Northeastern Weather Network

AWEKAS

Citizen Weather Observer Program (CWOP)

HAMweather, WeatherForYou, PWS Weather


Weather Underground History page Text

Daily Summary for May 23, 2017 Units:  English    Metric   Both
« Previous Day
Next Day »
Daily Weekly Monthly Yearly Custom
  High: Low: Average:
Temperature: 71.2 °F 54.8 °F 62.3 °F
Dew Point: 57.5 °F 51.2 °F 55.4 °F
Humidity: 97 % 55 % 80 %
Wind Speed: 4.3 mph 0.0 mph 0.7 mph
Wind Gust: 9.0 mph - -
Wind:- - SSE
Pressure: 29.93 in 29.76 in -
Precipitation: 0.00 in    
Historical Graphs
 
 
Tabular Data for May 23, 2017
Time Temperature Dew Point Pressure Wind Wind Speed Wind Gust Humidity Rainfall Rate (Hourly)
00:00 58.2 °F 57.4 °F 29.91 in Calm     97 % 0.00 in
00:05 58.1 °F 57.3 °F 29.91 in Calm     97 % 0.00 in
00:10 58.1 °F 57.3 °F 29.91 in Calm   1.2 mph 97 % 0.00 in
00:15 58.1 °F 57.3 °F 29.91 in Calm     97 % 0.00 in
00:20 58.1 °F 57.3 °F 29.91 in North 0.1 mph 2.3 mph 97 % 0.00 in
00:25 58.1 °F 57.3 °F 29.91 in Calm   1.2 mph 97 % 0.00 in
00:30 58.1 °F 57.3 °F 29.91 in North 0.1 mph   97 % 0.00 in
00:35 58.1 °F 57.3 °F 29.91 in North 0.4 mph 2.3 mph 97 % 0.00 in
00:40 58.1 °F 57.3 °F 29.91 in North 0.2 mph 1.2 mph 97 % 0.00 in
00:45 58.1 °F 57.3 °F 29.90 in Calm     97 % 0.00 in
00:50 58.1 °F 57.3 °F 29.90 in North 0.9 mph 3.5 mph 97 % 0.00 in
00:55 58.0 °F 57.2 °F 29.91 in Calm     97 % 0.00 in
01:01 58.0 °F 57.2 °F 29.91 in Calm     97 % 0.00 in
01:06 58.0 °F 57.2 °F 29.91 in North 0.5 mph 1.2 mph 97 % 0.00 in
01:11 58.0 °F 57.2 °F 29.91 in Calm   1.0 mph 97 % 0.00 in
01:16 58.0 °F 57.2 °F 29.91 in North 1.0 mph 1.0 mph 97 % 0.00 in
01:21 58.0 °F 57.2 °F 29.91 in WNW 0.4 mph 3.5 mph 97 % 0.00 in
01:26 58.0 °F 57.2 °F 29.91 in WNW 2.0 mph 4.0 mph 97 % 0.00 in
01:31 58.0 °F 57.2 °F 29.91 in WNW 0.2 mph 2.3 mph 97 % 0.00 in
01:36 58.0 °F 57.2 °F 29.91 in WNW 3.5 mph 7.0 mph 97 % 0.00 in
01:41 57.9 °F 57.1 °F 29.91 in NW 2.5 mph 4.6 mph 97 % 0.00 in
01:46 57.9 °F 57.1 °F 29.91 in NW 2.0 mph 8.0 mph 97 % 0.00 in
01:51 57.9 °F 57.1 °F 29.91 in Calm   3.0 mph 97 % 0.00 in
01:56 57.9 °F 57.1 °F 29.91 in NNW 1.0 mph 9.0 mph 97 % 0.00 in
02:01 57.8 °F 57.0 °F 29.91 in NW 1.1 mph 3.5 mph 97 % 0.00 in
02:06 57.8 °F 57.0 °F 29.91 in NW 3.4 mph 6.9 mph 97 % 0.00 in
02:11 57.7 °F 56.9 °F 29.91 in WNW 1.3 mph 3.5 mph 97 % 0.00 in
02:16 57.7 °F 56.9 °F 29.91 in WNW 2.1 mph 3.5 mph 97 % 0.00 in
02:21 57.7 °F 56.9 °F 29.91 in NW 1.3 mph 2.3 mph 97 % 0.00 in
02:26 57.6 °F 56.8 °F 29.90 in WNW 1.2 mph 4.6 mph 97 % 0.00 in
02:31 57.6 °F 56.8 °F 29.91 in WNW 0.3 mph 1.0 mph 97 % 0.00 in
02:36 57.6 °F 56.8 °F 29.90 in NW 0.5 mph 3.5 mph 97 % 0.00 in
02:41 57.5 °F 56.7 °F 29.90 in Calm   3.5 mph 97 % 0.00 in
02:46 57.5 °F 56.7 °F 29.90 in WNW 2.0 mph 4.0 mph 97 % 0.00 in
02:51 57.5 °F 56.7 °F 29.89 in Calm   3.0 mph 97 % 0.00 in
02:56 57.5 °F 56.7 °F 29.89 in NNW 0.7 mph 2.3 mph 97 % 0.00 in
03:01 57.5 °F 56.7 °F 29.89 in WNW 0.2 mph 1.2 mph 97 % 0.00 in
03:06 57.5 °F 56.7 °F 29.89 in WNW 0.2 mph 1.2 mph 97 % 0.00 in
03:11 57.5 °F 56.7 °F 29.89 in WNW 0.5 mph 2.3 mph 97 % 0.00 in
03:16 57.4 °F 56.6 °F 29.89 in North 0.6 mph 3.5 mph 97 % 0.00 in
03:21 57.4 °F 56.6 °F 29.90 in Calm     97 % 0.00 in
03:26 57.4 °F 56.6 °F 29.90 in North 0.8 mph 2.3 mph 97 % 0.00 in
03:31 57.4 °F 56.6 °F 29.89 in North 0.1 mph 1.2 mph 97 % 0.00 in
03:36 57.4 °F 56.6 °F 29.89 in Calm     97 % 0.00 in
03:41 57.4 °F 56.6 °F 29.90 in Calm     97 % 0.00 in
03:46 57.4 °F 56.6 °F 29.90 in Calm   1.2 mph 97 % 0.00 in
03:51 57.4 °F 56.6 °F 29.90 in NNW 1.9 mph 3.5 mph 97 % 0.00 in
03:56 57.4 °F 56.6 °F 29.90 in NNE 2.1 mph 3.5 mph 97 % 0.00 in
04:01 57.4 °F 56.6 °F 29.90 in NNE 4.1 mph 8.0 mph 97 % 0.00 in
04:07 57.4 °F 56.6 °F 29.90 in NE 2.3 mph 5.8 mph 97 % 0.00 in
04:12 57.4 °F 56.6 °F 29.90 in North 1.6 mph 5.8 mph 97 % 0.00 in
04:17 57.4 °F 56.6 °F 29.89 in Calm   2.3 mph 97 % 0.00 in
04:22 57.3 °F 56.5 °F 29.89 in NNE 2.2 mph 3.5 mph 97 % 0.00 in
04:27 57.2 °F 56.4 °F 29.89 in NNE 1.7 mph 4.0 mph 97 % 0.00 in
04:32 57.1 °F 56.3 °F 29.89 in NE 2.0 mph 4.0 mph 97 % 0.00 in
04:37 57.0 °F 56.2 °F 29.90 in North 1.6 mph 4.6 mph 97 % 0.00 in
04:42 56.9 °F 56.1 °F 29.90 in NNE 0.8 mph 3.0 mph 97 % 0.00 in
04:47 56.8 °F 56.0 °F 29.90 in NNE 2.0 mph 4.0 mph 97 % 0.00 in
04:52 56.7 °F 55.9 °F 29.90 in North 0.3 mph 3.0 mph 97 % 0.00 in
04:57 56.6 °F 55.8 °F 29.90 in NNE 0.7 mph 2.3 mph 97 % 0.00 in
05:02 56.6 °F 55.8 °F 29.90 in Calm   1.2 mph 97 % 0.00 in
05:07 56.4 °F 55.6 °F 29.90 in North 2.2 mph 3.5 mph 97 % 0.00 in
05:12 56.3 °F 55.5 °F 29.90 in North 2.2 mph 3.5 mph 97 % 0.00 in
05:17 56.2 °F 55.4 °F 29.90 in NNE 1.0 mph 3.5 mph 97 % 0.00 in
05:22 56.1 °F 55.3 °F 29.89 in NE 2.6 mph 4.6 mph 97 % 0.00 in
05:27 56.0 °F 55.2 °F 29.90 in NNE 3.0 mph 5.0 mph 97 % 0.00 in
05:32 55.9 °F 55.1 °F 29.90 in NNE 0.3 mph 3.5 mph 97 % 0.00 in
05:37 55.8 °F 55.0 °F 29.90 in NNE 2.2 mph 3.5 mph 97 % 0.00 in
05:42 55.7 °F 54.9 °F 29.91 in NNE 3.8 mph 7.0 mph 97 % 0.00 in
05:47 55.4 °F 54.3 °F 29.91 in North 3.6 mph 8.1 mph 96 % 0.00 in
05:52 55.3 °F 54.2 °F 29.91 in NNE 2.9 mph 5.8 mph 96 % 0.00 in
05:57 55.1 °F 54.0 °F 29.91 in North 4.2 mph 5.0 mph 96 % 0.00 in
06:03 55.0 °F 53.9 °F 29.92 in North 2.8 mph 6.9 mph 96 % 0.00 in
06:08 54.9 °F 53.8 °F 29.92 in North 2.0 mph 3.5 mph 96 % 0.00 in
06:13 54.8 °F 53.7 °F 29.91 in NNE 4.3 mph 6.9 mph 96 % 0.00 in
06:18 54.8 °F 53.7 °F 29.91 in NNE 1.5 mph 4.6 mph 96 % 0.00 in
06:23 54.9 °F 53.8 °F 29.91 in NNE 1.5 mph 3.5 mph 96 % 0.00 in
06:28 55.0 °F 53.9 °F 29.91 in NNE 1.6 mph 3.5 mph 96 % 0.00 in
06:33 55.2 °F 54.1 °F 29.92 in NNE 2.8 mph 3.5 mph 96 % 0.00 in
06:38 55.5 °F 54.7 °F 29.92 in NNE 0.1 mph 2.3 mph 97 % 0.00 in
06:43 55.8 °F 55.0 °F 29.92 in NNE 1.4 mph 2.3 mph 97 % 0.00 in
06:48 56.2 °F 55.4 °F 29.92 in NNE 1.0 mph 3.5 mph 97 % 0.00 in
06:53 56.6 °F 55.8 °F 29.92 in NE 1.0 mph 2.3 mph 97 % 0.00 in
06:58 57.1 °F 56.3 °F 29.93 in NE 0.5 mph 3.5 mph 97 % 0.00 in
07:03 57.4 °F 56.6 °F 29.93 in ENE 1.9 mph 3.0 mph 97 % 0.00 in
07:08 57.8 °F 57.0 °F 29.92 in NE 1.1 mph 2.3 mph 97 % 0.00 in
07:13 58.0 °F 57.2 °F 29.92 in NNE 1.0 mph 3.5 mph 97 % 0.00 in
07:18 58.3 °F 57.5 °F 29.92 in NE 0.2 mph 1.2 mph 97 % 0.00 in
07:23 58.4 °F 57.3 °F 29.92 in NE 1.0 mph 2.3 mph 96 % 0.00 in
07:28 58.5 °F 57.1 °F 29.92 in ENE 1.2 mph 3.5 mph 95 % 0.00 in
07:33 58.6 °F 57.2 °F 29.92 in NNE 1.3 mph 2.3 mph 95 % 0.00 in
07:38 58.9 °F 57.2 °F 29.92 in NE 1.0 mph 3.5 mph 94 % 0.00 in
07:43 58.9 °F 56.9 °F 29.92 in ENE 1.9 mph 3.5 mph 93 % 0.00 in
07:48 58.9 °F 56.6 °F 29.92 in North 1.4 mph 5.8 mph 92 % 0.00 in
07:53 58.8 °F 55.9 °F 29.92 in NNE 1.4 mph 4.6 mph 90 % 0.00 in
07:58 58.7 °F 55.5 °F 29.92 in NNE 0.5 mph 2.3 mph 89 % 0.00 in
08:03 58.7 °F 55.5 °F 29.92 in NNE 1.6 mph 3.5 mph 89 % 0.00 in
08:08 58.8 °F 55.6 °F 29.92 in NE 0.4 mph 2.3 mph 89 % 0.00 in
08:13 58.8 °F 55.6 °F 29.92 in North 1.5 mph 3.5 mph 89 % 0.00 in
08:18 58.8 °F 55.6 °F 29.92 in NE 0.3 mph 3.5 mph 89 % 0.00 in
08:23 58.7 °F 55.2 °F 29.92 in NNE 3.3 mph 4.6 mph 88 % 0.00 in
08:28 58.6 °F 54.7 °F 29.92 in NNE 2.1 mph 4.6 mph 87 % 0.00 in
08:33 58.4 °F 54.5 °F 29.93 in North 3.2 mph 3.5 mph 87 % 0.00 in
08:39 58.4 °F 54.5 °F 29.92 in ENE 2.5 mph 5.8 mph 87 % 0.00 in
08:44 58.4 °F 54.9 °F 29.92 in North 2.8 mph 4.6 mph 88 % 0.00 in
08:49 58.3 °F 54.4 °F 29.92 in ENE 2.7 mph 4.0 mph 87 % 0.00 in
08:54 58.3 °F 54.8 °F 29.92 in NE 1.9 mph 3.5 mph 88 % 0.00 in
08:59 58.4 °F 54.5 °F 29.92 in NE 1.8 mph 4.6 mph 87 % 0.00 in
09:04 58.5 °F 55.0 °F 29.91 in ENE 2.6 mph 4.0 mph 88 % 0.00 in
09:09 58.6 °F 54.7 °F 29.92 in ENE 0.5 mph 2.3 mph 87 % 0.00 in
09:14 58.7 °F 54.8 °F 29.91 in ENE 0.9 mph 2.3 mph 87 % 0.00 in
09:19 58.8 °F 54.9 °F 29.92 in NNE 1.7 mph 3.5 mph 87 % 0.00 in
09:24 59.1 °F 55.2 °F 29.92 in NNE 1.1 mph 3.5 mph 87 % 0.00 in
09:29 59.2 °F 54.4 °F 29.91 in NE 1.6 mph 3.0 mph 84 % 0.00 in
09:34 59.4 °F 54.9 °F 29.91 in NNE 1.4 mph 4.0 mph 85 % 0.00 in
09:39 59.6 °F 55.1 °F 29.91 in NNE 1.0 mph 2.3 mph 85 % 0.00 in
09:44 59.8 °F 55.0 °F 29.91 in NE 0.5 mph 2.3 mph 84 % 0.00 in
09:49 59.9 °F 55.1 °F 29.91 in Calm   1.2 mph 84 % 0.00 in
09:54 60.2 °F 55.3 °F 29.91 in NNE 0.3 mph 1.2 mph 84 % 0.00 in
09:59 60.4 °F 55.5 °F 29.91 in North 1.3 mph 3.5 mph 84 % 0.00 in
10:04 60.5 °F 55.3 °F 29.91 in NNE 0.8 mph 2.3 mph 83 % 0.00 in
10:09 60.7 °F 55.8 °F 29.90 in North 0.6 mph 2.0 mph 84 % 0.00 in
10:14 61.0 °F 56.1 °F 29.91 in ENE 0.4 mph 3.0 mph 84 % 0.00 in
10:19 61.3 °F 55.4 °F 29.91 in NE 1.1 mph 3.5 mph 81 % 0.00 in
10:24 61.8 °F 56.2 °F 29.91 in North 0.4 mph 2.3 mph 82 % 0.00 in
10:29 62.2 °F 56.0 °F 29.91 in NW 1.5 mph 2.3 mph 80 % 0.00 in
10:34 62.5 °F 55.5 °F 29.91 in NNE 1.7 mph 2.3 mph 78 % 0.00 in
10:39 62.7 °F 55.7 °F 29.91 in NNE 0.1 mph 1.0 mph 78 % 0.00 in
10:44 62.7 °F 55.7 °F 29.91 in Calm   1.2 mph 78 % 0.00 in
10:49 62.9 °F 54.9 °F 29.92 in NNE 0.2 mph 1.2 mph 75 % 0.00 in
10:54 62.9 °F 54.9 °F 29.92 in Calm   1.2 mph 75 % 0.00 in
10:59 62.9 °F 53.7 °F 29.92 in NNE 1.2 mph 2.3 mph 72 % 0.00 in
11:04 63.0 °F 54.6 °F 29.91 in Calm     74 % 0.00 in
11:09 63.1 °F 54.3 °F 29.91 in Calm   2.3 mph 73 % 0.00 in
11:14 63.3 °F 55.2 °F 29.91 in NNE 0.1 mph 1.0 mph 75 % 0.00 in
11:19 63.6 °F 54.4 °F 29.91 in Calm   2.3 mph 72 % 0.00 in
11:24 64.0 °F 56.6 °F 29.91 in ENE 1.5 mph 3.5 mph 77 % 0.00 in
11:26 64.2 °F 56.1 °F 29.91 in ENE 1.1 mph 2.3 mph 75 % 0.00 in
11:31 64.4 °F 54.4 °F 29.91 in ENE 0.7 mph 2.3 mph 70 % 0.00 in
11:36 64.5 °F 54.5 °F 29.90 in ENE 0.3 mph 2.3 mph 70 % 0.00 in
11:41 64.5 °F 54.9 °F 29.90 in ENE 0.4 mph 2.0 mph 71 % 0.00 in
11:46 64.5 °F 56.0 °F 29.89 in ENE 0.6 mph 1.0 mph 74 % 0.00 in
11:51 64.4 °F 54.8 °F 29.89 in ENE 0.3 mph 1.2 mph 71 % 0.00 in
11:56 64.3 °F 54.7 °F 29.89 in Calm     71 % 0.00 in
12:01 64.1 °F 55.3 °F 29.89 in ENE 0.1 mph 1.0 mph 73 % 0.00 in
12:06 63.9 °F 54.3 °F 29.89 in Calm     71 % 0.00 in
12:11 64.0 °F 55.2 °F 29.88 in ENE 0.4 mph 1.0 mph 73 % 0.00 in
12:16 64.1 °F 55.3 °F 29.89 in ENE 0.4 mph 1.0 mph 73 % 0.00 in
12:21 64.2 °F 55.4 °F 29.89 in ENE 0.4 mph 1.2 mph 73 % 0.00 in
12:26 64.3 °F 55.1 °F 29.89 in Calm     72 % 0.00 in
12:31 64.7 °F 55.5 °F 29.89 in Calm     72 % 0.00 in
12:37 65.2 °F 57.1 °F 29.89 in Calm     75 % 0.00 in
12:42 65.6 °F 55.9 °F 29.89 in Calm   1.2 mph 71 % 0.00 in
12:47 65.8 °F 56.1 °F 29.88 in Calm     71 % 0.00 in
12:52 66.2 °F 56.5 °F 29.88 in Calm   1.2 mph 71 % 0.00 in
12:57 66.4 °F 55.1 °F 29.88 in ENE 0.5 mph 2.3 mph 67 % 0.00 in
13:02 66.5 °F 55.6 °F 29.88 in North 0.4 mph 2.3 mph 68 % 0.00 in
13:07 66.7 °F 55.0 °F 29.88 in Calm   1.2 mph 66 % 0.00 in
13:12 66.9 °F 56.0 °F 29.87 in NNW 0.2 mph 3.5 mph 68 % 0.00 in
13:17 67.1 °F 56.2 °F 29.87 in NNW 1.7 mph 2.3 mph 68 % 0.00 in
13:22 67.2 °F 55.5 °F 29.87 in NNW 0.3 mph 1.2 mph 66 % 0.00 in
13:27 67.4 °F 56.1 °F 29.87 in Calm   2.3 mph 67 % 0.00 in
13:32 67.5 °F 54.5 °F 29.86 in NNW 0.5 mph 1.2 mph 63 % 0.00 in
13:37 67.7 °F 55.9 °F 29.86 in NNW 0.4 mph   66 % 0.00 in
13:42 67.9 °F 55.7 °F 29.86 in Calm     65 % 0.00 in
13:47 68.0 °F 55.4 °F 29.86 in NNW 0.1 mph 1.2 mph 64 % 0.00 in
13:49 68.1 °F 56.3 °F 29.86 in NNW 0.1 mph 1.2 mph 66 % 0.00 in
13:54 68.3 °F 57.3 °F 29.86 in Calm     68 % 0.00 in
13:59 68.4 °F 57.0 °F 29.86 in NNW 0.1 mph 1.0 mph 67 % 0.00 in
14:04 68.5 °F 55.0 °F 29.86 in NW 0.7 mph 3.5 mph 62 % 0.00 in
14:09 68.6 °F 55.9 °F 29.86 in Calm     64 % 0.00 in
14:14 68.7 °F 56.5 °F 29.86 in NW 0.8 mph 2.3 mph 65 % 0.00 in
14:19 68.8 °F 57.0 °F 29.86 in NW 0.9 mph 1.2 mph 66 % 0.00 in
14:24 69.0 °F 56.3 °F 29.85 in SW 0.4 mph 2.3 mph 64 % 0.00 in
14:29 69.2 °F 56.5 °F 29.85 in Calm     64 % 0.00 in
14:34 69.4 °F 56.3 °F 29.85 in Calm   1.2 mph 63 % 0.00 in
14:39 69.6 °F 55.1 °F 29.85 in WSW 1.9 mph 3.0 mph 60 % 0.00 in
14:44 69.9 °F 56.3 °F 29.85 in Calm     62 % 0.00 in
14:49 70.2 °F 55.7 °F 29.84 in Calm   1.2 mph 60 % 0.00 in
14:54 70.5 °F 56.9 °F 29.84 in West 2.0 mph 3.5 mph 62 % 0.00 in
14:59 70.8 °F 54.8 °F 29.84 in WSW 1.6 mph 4.6 mph 57 % 0.00 in
15:04 71.1 °F 55.6 °F 29.84 in NW 1.5 mph 4.6 mph 58 % 0.00 in
15:09 71.2 °F 56.1 °F 29.84 in West 1.3 mph 3.5 mph 59 % 0.00 in
15:15 71.2 °F 54.2 °F 29.84 in WSW 3.2 mph 4.0 mph 55 % 0.00 in
15:20 71.2 °F 54.7 °F 29.84 in WSW 0.1 mph 1.2 mph 56 % 0.00 in
15:25 71.0 °F 55.5 °F 29.84 in Calm   1.2 mph 58 % 0.00 in
15:30 70.9 °F 55.4 °F 29.83 in SW 0.2 mph 3.5 mph 58 % 0.00 in
15:35 70.8 °F 54.8 °F 29.83 in SW 0.3 mph 2.3 mph 57 % 0.00 in
15:40 70.7 °F 56.1 °F 29.83 in SW 0.6 mph 2.3 mph 60 % 0.00 in
15:45 70.6 °F 55.6 °F 29.83 in WSW 2.2 mph 3.5 mph 59 % 0.00 in
15:50 70.5 °F 54.0 °F 29.83 in WSW 0.3 mph 3.5 mph 56 % 0.00 in
15:55 70.5 °F 55.0 °F 29.82 in WSW 1.4 mph 2.3 mph 58 % 0.00 in
16:00 70.4 °F 56.3 °F 29.82 in WSW 0.7 mph 2.3 mph 61 % 0.00 in
16:05 70.4 °F 55.8 °F 29.82 in WSW 0.3 mph 1.2 mph 60 % 0.00 in
16:10 70.4 °F 55.8 °F 29.82 in West 1.0 mph 4.0 mph 60 % 0.00 in
16:15 70.3 °F 54.8 °F 29.82 in West 2.0 mph 5.0 mph 58 % 0.00 in
16:20 70.2 °F 55.7 °F 29.82 in West 3.0 mph 4.0 mph 60 % 0.00 in
16:25 70.1 °F 55.6 °F 29.82 in West 1.0 mph 2.0 mph 60 % 0.00 in
16:30 70.1 °F 55.6 °F 29.82 in West 1.0 mph 4.0 mph 60 % 0.00 in
16:35 70.1 °F 55.6 °F 29.82 in Calm   2.0 mph 60 % 0.00 in
16:40 70.1 °F 55.1 °F 29.82 in WSW 1.0 mph 5.0 mph 59 % 0.00 in
16:45 70.0 °F 55.5 °F 29.82 in WSW 2.0 mph 5.0 mph 60 % 0.00 in
16:50 70.0 °F 55.0 °F 29.82 in WSW 1.0 mph 3.0 mph 59 % 0.00 in
16:55 69.9 °F 55.4 °F 29.82 in West 1.0 mph 3.0 mph 60 % 0.00 in
17:05 69.7 °F 55.2 °F 29.81 in WNW 1.0 mph 3.0 mph 60 % 0.00 in
17:10 69.6 °F 55.1 °F 29.81 in Calm   3.0 mph 60 % 0.00 in
17:18 69.4 °F 54.9 °F 29.81 in WNW 2.1 mph 3.5 mph 60 % 0.00 in
17:23 69.3 °F 54.4 °F 29.81 in WNW 0.1 mph 2.3 mph 59 % 0.00 in
17:28 69.2 °F 54.7 °F 29.80 in WNW 0.1 mph 1.2 mph 60 % 0.00 in
17:33 69.1 °F 55.1 °F 29.80 in West 0.2 mph 3.5 mph 61 % 0.00 in
17:38 69.0 °F 55.0 °F 29.80 in West 0.1 mph 1.2 mph 61 % 0.00 in
17:43 68.9 °F 54.4 °F 29.80 in West 0.3 mph 1.2 mph 60 % 0.00 in
17:48 68.8 °F 55.2 °F 29.80 in WNW 0.2 mph 2.0 mph 62 % 0.00 in
17:53 68.7 °F 55.2 °F 29.80 in Calm   2.3 mph 62 % 0.00 in
17:58 68.6 °F 55.9 °F 29.80 in Calm     64 % 0.00 in
18:03 68.5 °F 55.8 °F 29.79 in Calm     64 % 0.00 in
18:08 68.4 °F 55.7 °F 29.79 in Calm     64 % 0.00 in
18:13 68.3 °F 56.1 °F 29.80 in WNW 0.1 mph 1.0 mph 65 % 0.00 in
18:19 68.2 °F 56.0 °F 29.80 in Calm     65 % 0.00 in
18:24 68.1 °F 55.5 °F 29.79 in Calm     64 % 0.00 in
18:29 68.1 °F 55.9 °F 29.79 in Calm   1.2 mph 65 % 0.00 in
18:34 68.1 °F 55.5 °F 29.79 in Calm     64 % 0.00 in
18:39 68.0 °F 55.8 °F 29.79 in Calm     65 % 0.00 in
18:44 67.9 °F 56.1 °F 29.79 in Calm     66 % 0.00 in
18:49 67.8 °F 55.6 °F 29.79 in Calm     65 % 0.00 in
18:54 67.8 °F 55.6 °F 29.79 in Calm     65 % 0.00 in
18:55 67.7 °F 55.5 °F 29.78 in Calm     65 % 0.00 in
19:00 67.6 °F 55.8 °F 29.79 in Calm     66 % 0.00 in
19:05 67.6 °F 56.2 °F 29.79 in Calm     67 % 0.00 in
19:10 67.5 °F 56.6 °F 29.79 in Calm     68 % 0.00 in
19:15 67.4 °F 56.9 °F 29.79 in Calm     69 % 0.00 in
19:20 67.2 °F 56.7 °F 29.79 in Calm     69 % 0.00 in
19:25 67.1 °F 56.6 °F 29.80 in Calm     69 % 0.00 in
19:30 66.9 °F 56.4 °F 29.79 in Calm     69 % 0.00 in
19:35 66.8 °F 57.1 °F 29.79 in Calm     71 % 0.00 in
19:40 66.6 °F 57.3 °F 29.79 in Calm     72 % 0.00 in
19:45 66.4 °F 57.1 °F 29.79 in Calm     72 % 0.00 in
19:50 66.2 °F 56.9 °F 29.79 in Calm     72 % 0.00 in
19:55 66.0 °F 57.5 °F 29.79 in Calm     74 % 0.00 in
20:01 65.8 °F 57.3 °F 29.79 in Calm     74 % 0.00 in
20:06 65.6 °F 57.1 °F 29.80 in Calm     74 % 0.00 in
20:11 65.4 °F 56.9 °F 29.79 in Calm     74 % 0.00 in
20:16 65.1 °F 56.6 °F 29.79 in Calm   1.0 mph 74 % 0.00 in
20:21 64.9 °F 56.0 °F 29.79 in Calm     73 % 0.00 in
20:26 64.6 °F 55.7 °F 29.79 in Calm   1.0 mph 73 % 0.00 in
20:31 64.4 °F 55.2 °F 29.79 in Calm     72 % 0.00 in
20:36 64.2 °F 55.0 °F 29.79 in Calm     72 % 0.00 in
20:41 64.0 °F 55.2 °F 29.79 in Calm     73 % 0.00 in
20:46 63.8 °F 54.6 °F 29.79 in WNW 0.1 mph 1.2 mph 72 % 0.00 in
20:51 63.6 °F 54.8 °F 29.79 in Calm     73 % 0.00 in
20:56 63.4 °F 54.6 °F 29.79 in Calm     73 % 0.00 in
21:01 63.2 °F 54.4 °F 29.79 in Calm     73 % 0.00 in
21:06 63.1 °F 54.3 °F 29.79 in Calm     73 % 0.00 in
21:11 62.9 °F 53.7 °F 29.79 in Calm     72 % 0.00 in
21:16 62.7 °F 53.9 °F 29.79 in Calm     73 % 0.00 in
21:21 62.6 °F 53.8 °F 29.79 in Calm     73 % 0.00 in
21:26 62.5 °F 53.7 °F 29.80 in Calm     73 % 0.00 in
21:31 62.3 °F 53.5 °F 29.80 in Calm     73 % 0.00 in
21:36 62.2 °F 53.4 °F 29.80 in Calm     73 % 0.00 in
21:41 62.1 °F 53.3 °F 29.80 in Calm     73 % 0.00 in
21:46 62.0 °F 53.2 °F 29.80 in Calm     73 % 0.00 in
21:51 61.8 °F 53.1 °F 29.80 in Calm     73 % 0.00 in
21:56 61.6 °F 52.9 °F 29.80 in Calm     73 % 0.00 in
22:01 61.4 °F 52.7 °F 29.80 in Calm     73 % 0.00 in
22:06 61.3 °F 52.6 °F 29.80 in Calm     73 % 0.00 in
22:11 61.3 °F 52.9 °F 29.80 in West 0.7 mph 2.3 mph 74 % 0.00 in
22:16 61.2 °F 52.8 °F 29.80 in West 0.4 mph 2.3 mph 74 % 0.00 in
22:21 61.1 °F 52.7 °F 29.80 in Calm   1.2 mph 74 % 0.00 in
22:26 61.0 °F 52.7 °F 29.80 in West 0.4 mph 1.2 mph 74 % 0.00 in
22:31 60.9 °F 52.2 °F 29.80 in Calm   1.2 mph 73 % 0.00 in
22:36 60.7 °F 52.0 °F 29.80 in Calm     73 % 0.00 in
22:41 60.6 °F 51.9 °F 29.79 in Calm     73 % 0.00 in
22:46 60.4 °F 51.7 °F 29.78 in Calm     73 % 0.00 in
22:51 60.4 °F 51.7 °F 29.78 in West 0.2 mph 1.2 mph 73 % 0.00 in
22:56 60.3 °F 51.6 °F 29.79 in Calm   1.2 mph 73 % 0.00 in
23:01 60.2 °F 51.5 °F 29.79 in Calm   1.2 mph 73 % 0.00 in
23:06 60.1 °F 51.8 °F 29.78 in West 0.1 mph 1.2 mph 74 % 0.00 in
23:11 60.0 °F 51.7 °F 29.78 in Calm   1.2 mph 74 % 0.00 in
23:16 59.9 °F 51.6 °F 29.78 in Calm     74 % 0.00 in
23:21 59.8 °F 51.5 °F 29.77 in Calm     74 % 0.00 in
23:26 59.6 °F 51.3 °F 29.77 in Calm   1.2 mph 74 % 0.00 in
23:31 59.6 °F 51.3 °F 29.77 in Calm     74 % 0.00 in
23:36 59.5 °F 51.2 °F 29.77 in Calm     74 % 0.00 in
23:42 59.4 °F 51.5 °F 29.76 in Calm     75 % 0.00 in
23:47 59.3 °F 51.4 °F 29.76 in West 0.1 mph 1.0 mph 75 % 0.00 in
23:52 59.2 °F 51.3 °F 29.76 in Calm     75 % 0.00 in
23:57 59.1 °F 51.5 °F 29.76 in Calm     76 % 0.00 in
Crab Meadow Weather
Compliments of Weather Underground - 3 mb

Script developed by  Jim McMurry - jmcmurry@mwt.net Adapted for the template by  Wim van der Kuil - Leuven-Template.eu

Recycling: A used aluminum can is recycled and back on the grocery shelf as a new can, in as little as 60 days.